sensor_id;sensor_type;location;lat;lon;timestamp;P1;durP1;ratioP1;P2;durP2;ratioP2
47259;SDS011;32999;52.412;4.890;2022-11-15T00:33:06;65.53;;;23.75;;
47259;SDS011;32999;52.412;4.890;2022-11-15T00:57:22;60.50;;;23.88;;
47259;SDS011;32999;52.412;4.890;2022-11-15T01:39:25;61.13;;;22.33;;
47259;SDS011;32999;52.412;4.890;2022-11-15T01:44:44;56.40;;;21.65;;
47259;SDS011;32999;52.412;4.890;2022-11-15T01:49:52;80.28;;;25.40;;
47259;SDS011;32999;52.412;4.890;2022-11-15T01:55:16;80.20;;;26.58;;
47259;SDS011;32999;52.412;4.890;2022-11-15T02:00:25;69.57;;;23.70;;
47259;SDS011;32999;52.412;4.890;2022-11-15T02:05:26;55.25;;;22.08;;
47259;SDS011;32999;52.412;4.890;2022-11-15T02:10:30;59.65;;;22.65;;
47259;SDS011;32999;52.412;4.890;2022-11-15T02:15:33;84.15;;;26.10;;
47259;SDS011;32999;52.412;4.890;2022-11-15T02:21:03;69.28;;;24.38;;
47259;SDS011;32999;52.412;4.890;2022-11-15T02:33:03;79.68;;;25.38;;
47259;SDS011;32999;52.412;4.890;2022-11-15T02:38:47;81.78;;;25.70;;
47259;SDS011;32999;52.412;4.890;2022-11-15T02:43:59;89.28;;;26.60;;
47259;SDS011;32999;52.412;4.890;2022-11-15T02:49:07;90.30;;;26.17;;
47259;SDS011;32999;52.412;4.890;2022-11-15T02:54:12;92.82;;;26.45;;
47259;SDS011;32999;52.412;4.890;2022-11-15T03:05:24;111.85;;;28.13;;
47259;SDS011;32999;52.412;4.890;2022-11-15T03:10:32;96.85;;;28.33;;
47259;SDS011;32999;52.412;4.890;2022-11-15T03:15:44;91.20;;;28.83;;
47259;SDS011;32999;52.412;4.890;2022-11-15T03:20:54;86.15;;;27.88;;
47259;SDS011;32999;52.412;4.890;2022-11-15T03:25:57;98.00;;;29.42;;
47259;SDS011;32999;52.412;4.890;2022-11-15T03:31:00;95.05;;;28.52;;
47259;SDS011;32999;52.412;4.890;2022-11-15T03:36:24;107.97;;;28.05;;
47259;SDS011;32999;52.412;4.890;2022-11-15T03:41:27;111.50;;;32.63;;
47259;SDS011;32999;52.412;4.890;2022-11-15T03:46:36;105.10;;;29.17;;
47259;SDS011;32999;52.412;4.890;2022-11-15T03:51:42;106.22;;;32.45;;
47259;SDS011;32999;52.412;4.890;2022-11-15T03:56:44;93.65;;;29.15;;
47259;SDS011;32999;52.412;4.890;2022-11-15T04:01:46;87.63;;;29.52;;
47259;SDS011;32999;52.412;4.890;2022-11-15T04:06:49;79.97;;;27.25;;
47259;SDS011;32999;52.412;4.890;2022-11-15T04:11:51;77.97;;;27.48;;
47259;SDS011;32999;52.412;4.890;2022-11-15T04:16:53;83.43;;;27.17;;
47259;SDS011;32999;52.412;4.890;2022-11-15T04:21:56;73.55;;;26.33;;
47259;SDS011;32999;52.412;4.890;2022-11-15T04:27:15;56.10;;;24.80;;
47259;SDS011;32999;52.412;4.890;2022-11-15T04:32:17;65.13;;;25.63;;
47259;SDS011;32999;52.412;4.890;2022-11-15T04:37:20;59.83;;;25.67;;
47259;SDS011;32999;52.412;4.890;2022-11-15T04:42:22;58.55;;;24.67;;
47259;SDS011;32999;52.412;4.890;2022-11-15T04:47:23;54.17;;;23.48;;
47259;SDS011;32999;52.412;4.890;2022-11-15T04:52:29;55.65;;;22.77;;
47259;SDS011;32999;52.412;4.890;2022-11-15T04:57:31;52.08;;;23.23;;
47259;SDS011;32999;52.412;4.890;2022-11-15T05:02:33;50.47;;;21.50;;
47259;SDS011;32999;52.412;4.890;2022-11-15T05:07:54;40.05;;;21.05;;
47259;SDS011;32999;52.412;4.890;2022-11-15T05:12:56;46.20;;;21.30;;
47259;SDS011;32999;52.412;4.890;2022-11-15T05:17:58;44.58;;;19.33;;
47259;SDS011;32999;52.412;4.890;2022-11-15T05:23:02;31.83;;;17.42;;
47259;SDS011;32999;52.412;4.890;2022-11-15T05:28:10;36.22;;;18.52;;
47259;SDS011;32999;52.412;4.890;2022-11-15T05:33:12;29.95;;;17.92;;
47259;SDS011;32999;52.412;4.890;2022-11-15T05:38:15;35.40;;;17.88;;
47259;SDS011;32999;52.412;4.890;2022-11-15T05:43:17;29.77;;;17.20;;
47259;SDS011;32999;52.412;4.890;2022-11-15T05:48:19;29.85;;;17.85;;
47259;SDS011;32999;52.412;4.890;2022-11-15T05:53:23;29.88;;;16.80;;
47259;SDS011;32999;52.412;4.890;2022-11-15T05:58:30;31.02;;;16.27;;
47259;SDS011;32999;52.412;4.890;2022-11-15T06:03:32;28.38;;;16.05;;
47259;SDS011;32999;52.412;4.890;2022-11-15T06:08:36;26.20;;;14.82;;
47259;SDS011;32999;52.412;4.890;2022-11-15T06:13:38;33.60;;;15.80;;
47259;SDS011;32999;52.412;4.890;2022-11-15T06:18:39;24.27;;;13.95;;
47259;SDS011;32999;52.412;4.890;2022-11-15T06:23:42;20.67;;;12.68;;
47259;SDS011;32999;52.412;4.890;2022-11-15T06:28:44;26.55;;;14.65;;
47259;SDS011;32999;52.412;4.890;2022-11-15T06:33:46;29.13;;;16.00;;
47259;SDS011;32999;52.412;4.890;2022-11-15T06:38:50;22.77;;;13.52;;
47259;SDS011;32999;52.412;4.890;2022-11-15T06:43:52;20.63;;;13.40;;
47259;SDS011;32999;52.412;4.890;2022-11-15T06:48:54;27.88;;;14.52;;
47259;SDS011;32999;52.412;4.890;2022-11-15T06:53:57;26.30;;;14.40;;
47259;SDS011;32999;52.412;4.890;2022-11-15T06:58:59;27.92;;;15.77;;
47259;SDS011;32999;52.412;4.890;2022-11-15T07:04:00;27.08;;;15.38;;
47259;SDS011;32999;52.412;4.890;2022-11-15T07:09:04;25.63;;;14.65;;
47259;SDS011;32999;52.412;4.890;2022-11-15T07:14:05;28.08;;;15.75;;
47259;SDS011;32999;52.412;4.890;2022-11-15T07:19:08;24.83;;;15.20;;
47259;SDS011;32999;52.412;4.890;2022-11-15T07:24:11;27.27;;;14.90;;
47259;SDS011;32999;52.412;4.890;2022-11-15T07:29:13;26.90;;;14.95;;
47259;SDS011;32999;52.412;4.890;2022-11-15T07:34:15;27.00;;;14.93;;
47259;SDS011;32999;52.412;4.890;2022-11-15T07:39:18;23.85;;;13.25;;
47259;SDS011;32999;52.412;4.890;2022-11-15T07:44:20;28.10;;;13.82;;
47259;SDS011;32999;52.412;4.890;2022-11-15T07:49:22;16.70;;;10.95;;
47259;SDS011;32999;52.412;4.890;2022-11-15T07:54:25;17.80;;;10.68;;
47259;SDS011;32999;52.412;4.890;2022-11-15T07:59:27;18.95;;;11.02;;
47259;SDS011;32999;52.412;4.890;2022-11-15T08:04:29;18.13;;;11.00;;
47259;SDS011;32999;52.412;4.890;2022-11-15T08:09:32;22.33;;;10.82;;
47259;SDS011;32999;52.412;4.890;2022-11-15T08:14:37;18.45;;;9.82;;
47259;SDS011;32999;52.412;4.890;2022-11-15T08:19:38;20.70;;;10.45;;
47259;SDS011;32999;52.412;4.890;2022-11-15T08:24:41;11.98;;;8.43;;
47259;SDS011;32999;52.412;4.890;2022-11-15T08:29:44;13.25;;;7.75;;
47259;SDS011;32999;52.412;4.890;2022-11-15T08:34:46;16.30;;;7.45;;
47259;SDS011;32999;52.412;4.890;2022-11-15T08:39:49;22.67;;;8.90;;
47259;SDS011;32999;52.412;4.890;2022-11-15T08:44:51;16.80;;;9.07;;
47259;SDS011;32999;52.412;4.890;2022-11-15T08:49:52;16.55;;;8.65;;
47259;SDS011;32999;52.412;4.890;2022-11-15T08:54:57;22.20;;;8.82;;
47259;SDS011;32999;52.412;4.890;2022-11-15T08:59:59;20.73;;;8.68;;
47259;SDS011;32999;52.412;4.890;2022-11-15T09:05:01;18.30;;;8.63;;
47259;SDS011;32999;52.412;4.890;2022-11-15T09:10:05;13.20;;;7.22;;
47259;SDS011;32999;52.412;4.890;2022-11-15T09:15:08;14.82;;;7.53;;
47259;SDS011;32999;52.412;4.890;2022-11-15T09:20:10;15.70;;;7.65;;
47259;SDS011;32999;52.412;4.890;2022-11-15T09:25:14;10.70;;;5.97;;
47259;SDS011;32999;52.412;4.890;2022-11-15T09:30:16;10.13;;;5.13;;
47259;SDS011;32999;52.412;4.890;2022-11-15T09:35:17;8.38;;;5.38;;
47259;SDS011;32999;52.412;4.890;2022-11-15T09:40:20;11.35;;;5.30;;
47259;SDS011;32999;52.412;4.890;2022-11-15T09:45:23;14.00;;;5.38;;
47259;SDS011;32999;52.412;4.890;2022-11-15T09:50:31;7.53;;;4.38;;
47259;SDS011;32999;52.412;4.890;2022-11-15T09:55:43;6.97;;;4.40;;
47259;SDS011;32999;52.412;4.890;2022-11-15T10:00:49;11.98;;;4.90;;
47259;SDS011;32999;52.412;4.890;2022-11-15T10:05:54;12.73;;;5.15;;
47259;SDS011;32999;52.412;4.890;2022-11-15T10:11:01;7.45;;;4.22;;
47259;SDS011;32999;52.412;4.890;2022-11-15T10:16:13;11.00;;;5.00;;
47259;SDS011;32999;52.412;4.890;2022-11-15T10:21:29;12.73;;;4.68;;
47259;SDS011;32999;52.412;4.890;2022-11-15T10:26:46;10.00;;;4.53;;
47259;SDS011;32999;52.412;4.890;2022-11-15T10:31:49;5.88;;;3.67;;
47259;SDS011;32999;52.412;4.890;2022-11-15T10:36:55;10.70;;;4.28;;
47259;SDS011;32999;52.412;4.890;2022-11-15T10:42:00;6.88;;;3.50;;
47259;SDS011;32999;52.412;4.890;2022-11-15T10:47:21;4.53;;;3.30;;
47259;SDS011;32999;52.412;4.890;2022-11-15T10:52:28;5.43;;;2.90;;
47259;SDS011;32999;52.412;4.890;2022-11-15T10:57:33;6.55;;;3.25;;
47259;SDS011;32999;52.412;4.890;2022-11-15T11:02:39;9.98;;;4.25;;
47259;SDS011;32999;52.412;4.890;2022-11-15T11:07:59;6.07;;;3.38;;
47259;SDS011;32999;52.412;4.890;2022-11-15T11:13:13;7.40;;;3.00;;
47259;SDS011;32999;52.412;4.890;2022-11-15T11:18:18;3.80;;;2.27;;
47259;SDS011;32999;52.412;4.890;2022-11-15T11:23:38;9.05;;;2.25;;
47259;SDS011;32999;52.412;4.890;2022-11-15T11:28:51;4.38;;;2.20;;
47259;SDS011;32999;52.412;4.890;2022-11-15T11:34:04;6.18;;;3.13;;
47259;SDS011;32999;52.412;4.890;2022-11-15T11:39:19;5.15;;;2.47;;
47259;SDS011;32999;52.412;4.890;2022-11-15T11:44:30;9.40;;;2.50;;
47259;SDS011;32999;52.412;4.890;2022-11-15T11:49:38;9.30;;;3.00;;
47259;SDS011;32999;52.412;4.890;2022-11-15T11:54:55;4.70;;;1.98;;
47259;SDS011;32999;52.412;4.890;2022-11-15T12:00:09;4.03;;;1.83;;
47259;SDS011;32999;52.412;4.890;2022-11-15T12:05:18;3.75;;;1.42;;
47259;SDS011;32999;52.412;4.890;2022-11-15T12:10:28;8.80;;;2.08;;
47259;SDS011;32999;52.412;4.890;2022-11-15T12:15:37;4.18;;;1.30;;
47259;SDS011;32999;52.412;4.890;2022-11-15T12:20:48;6.80;;;1.27;;
47259;SDS011;32999;52.412;4.890;2022-11-15T12:25:55;4.15;;;1.08;;
47259;SDS011;32999;52.412;4.890;2022-11-15T12:31:04;2.90;;;1.42;;
47259;SDS011;32999;52.412;4.890;2022-11-15T12:36:29;5.60;;;1.77;;
47259;SDS011;32999;52.412;4.890;2022-11-15T12:41:35;6.40;;;1.50;;
47259;SDS011;32999;52.412;4.890;2022-11-15T12:52:07;4.90;;;1.10;;
47259;SDS011;32999;52.412;4.890;2022-11-15T12:57:22;6.28;;;1.45;;
47259;SDS011;32999;52.412;4.890;2022-11-15T13:02:41;8.27;;;1.55;;
47259;SDS011;32999;52.412;4.890;2022-11-15T13:07:55;6.68;;;1.35;;
47259;SDS011;32999;52.412;4.890;2022-11-15T13:12:58;3.05;;;0.90;;
47259;SDS011;32999;52.412;4.890;2022-11-15T13:23:29;4.07;;;1.15;;
47259;SDS011;32999;52.412;4.890;2022-11-15T13:28:33;6.93;;;1.40;;
47259;SDS011;32999;52.412;4.890;2022-11-15T13:33:39;9.77;;;1.10;;
47259;SDS011;32999;52.412;4.890;2022-11-15T13:38:41;7.63;;;1.25;;
47259;SDS011;32999;52.412;4.890;2022-11-15T13:43:43;2.80;;;0.88;;
47259;SDS011;32999;52.412;4.890;2022-11-15T13:48:47;6.70;;;1.00;;
47259;SDS011;32999;52.412;4.890;2022-11-15T13:53:54;7.18;;;1.25;;
47259;SDS011;32999;52.412;4.890;2022-11-15T13:58:59;5.68;;;0.93;;
47259;SDS011;32999;52.412;4.890;2022-11-15T14:04:03;5.45;;;1.10;;
47259;SDS011;32999;52.412;4.890;2022-11-15T14:14:44;4.18;;;1.10;;
47259;SDS011;32999;52.412;4.890;2022-11-15T14:19:48;4.70;;;0.90;;
47259;SDS011;32999;52.412;4.890;2022-11-15T14:30:18;3.78;;;0.57;;
47259;SDS011;32999;52.412;4.890;2022-11-15T14:35:22;5.22;;;1.58;;
47259;SDS011;32999;52.412;4.890;2022-11-15T14:40:24;3.00;;;0.83;;
47259;SDS011;32999;52.412;4.890;2022-11-15T14:45:26;4.32;;;0.80;;
47259;SDS011;32999;52.412;4.890;2022-11-15T14:50:30;7.63;;;0.95;;
47259;SDS011;32999;52.412;4.890;2022-11-15T14:55:34;3.40;;;1.05;;
47259;SDS011;32999;52.412;4.890;2022-11-15T15:00:37;4.25;;;1.15;;
47259;SDS011;32999;52.412;4.890;2022-11-15T15:05:42;6.07;;;1.50;;
47259;SDS011;32999;52.412;4.890;2022-11-15T15:10:45;5.85;;;1.50;;
47259;SDS011;32999;52.412;4.890;2022-11-15T15:15:47;5.13;;;1.85;;
47259;SDS011;32999;52.412;4.890;2022-11-15T15:20:53;5.38;;;1.20;;
47259;SDS011;32999;52.412;4.890;2022-11-15T15:25:58;6.60;;;1.50;;
47259;SDS011;32999;52.412;4.890;2022-11-15T15:30:59;6.38;;;1.83;;
47259;SDS011;32999;52.412;4.890;2022-11-15T15:36:03;5.78;;;1.30;;
47259;SDS011;32999;52.412;4.890;2022-11-15T15:41:07;5.15;;;1.30;;
47259;SDS011;32999;52.412;4.890;2022-11-15T15:46:11;5.35;;;1.20;;
47259;SDS011;32999;52.412;4.890;2022-11-15T15:51:16;4.25;;;1.13;;
47259;SDS011;32999;52.412;4.890;2022-11-15T15:56:18;5.55;;;1.30;;
47259;SDS011;32999;52.412;4.890;2022-11-15T16:01:20;3.50;;;1.33;;
47259;SDS011;32999;52.412;4.890;2022-11-15T16:06:34;4.18;;;1.17;;
47259;SDS011;32999;52.412;4.890;2022-11-15T16:11:38;1.65;;;0.82;;
47259;SDS011;32999;52.412;4.890;2022-11-15T16:16:40;2.88;;;0.77;;
47259;SDS011;32999;52.412;4.890;2022-11-15T16:21:43;6.63;;;0.90;;
47259;SDS011;32999;52.412;4.890;2022-11-15T16:26:45;2.53;;;0.90;;
47259;SDS011;32999;52.412;4.890;2022-11-15T16:31:48;2.33;;;0.50;;
47259;SDS011;32999;52.412;4.890;2022-11-15T16:36:51;4.25;;;1.27;;
47259;SDS011;32999;52.412;4.890;2022-11-15T16:41:54;2.50;;;0.70;;
47259;SDS011;32999;52.412;4.890;2022-11-15T16:46:55;1.25;;;0.65;;
47259;SDS011;32999;52.412;4.890;2022-11-15T16:51:58;2.92;;;0.80;;
47259;SDS011;32999;52.412;4.890;2022-11-15T16:57:00;4.22;;;0.85;;
47259;SDS011;32999;52.412;4.890;2022-11-15T17:02:02;5.75;;;1.52;;
47259;SDS011;32999;52.412;4.890;2022-11-15T17:07:05;3.58;;;1.25;;
47259;SDS011;32999;52.412;4.890;2022-11-15T17:12:07;4.05;;;1.15;;
47259;SDS011;32999;52.412;4.890;2022-11-15T17:17:10;8.00;;;1.30;;
47259;SDS011;32999;52.412;4.890;2022-11-15T17:22:14;3.47;;;1.20;;
47259;SDS011;32999;52.412;4.890;2022-11-15T17:27:15;4.80;;;1.10;;
47259;SDS011;32999;52.412;4.890;2022-11-15T17:32:17;6.40;;;2.28;;
47259;SDS011;32999;52.412;4.890;2022-11-15T17:48:06;6.35;;;1.77;;
47259;SDS011;32999;52.412;4.890;2022-11-15T17:53:09;2.55;;;1.40;;
47259;SDS011;32999;52.412;4.890;2022-11-15T17:58:10;8.13;;;1.55;;
47259;SDS011;32999;52.412;4.890;2022-11-15T18:03:13;7.07;;;1.75;;
47259;SDS011;32999;52.412;4.890;2022-11-15T18:08:16;4.82;;;2.08;;
47259;SDS011;32999;52.412;4.890;2022-11-15T18:13:18;3.42;;;2.22;;
47259;SDS011;32999;52.412;4.890;2022-11-15T18:18:19;5.28;;;1.85;;
47259;SDS011;32999;52.412;4.890;2022-11-15T18:23:22;4.55;;;2.35;;
47259;SDS011;32999;52.412;4.890;2022-11-15T18:28:31;10.00;;;3.67;;
47259;SDS011;32999;52.412;4.890;2022-11-15T18:33:34;4.03;;;2.20;;
47259;SDS011;32999;52.412;4.890;2022-11-15T18:38:37;5.63;;;2.25;;
47259;SDS011;32999;52.412;4.890;2022-11-15T18:43:39;4.55;;;2.58;;
47259;SDS011;32999;52.412;4.890;2022-11-15T18:48:42;14.15;;;3.65;;
47259;SDS011;32999;52.412;4.890;2022-11-15T18:53:45;5.18;;;3.05;;
47259;SDS011;32999;52.412;4.890;2022-11-15T18:58:48;6.87;;;2.93;;
47259;SDS011;32999;52.412;4.890;2022-11-15T19:03:51;10.27;;;3.28;;
47259;SDS011;32999;52.412;4.890;2022-11-15T19:08:56;5.90;;;3.42;;
47259;SDS011;32999;52.412;4.890;2022-11-15T19:13:59;6.90;;;3.45;;
47259;SDS011;32999;52.412;4.890;2022-11-15T19:19:03;8.82;;;3.63;;
47259;SDS011;32999;52.412;4.890;2022-11-15T19:24:08;9.52;;;3.85;;
47259;SDS011;32999;52.412;4.890;2022-11-15T19:29:10;7.57;;;3.90;;
47259;SDS011;32999;52.412;4.890;2022-11-15T19:34:12;8.23;;;4.22;;
47259;SDS011;32999;52.412;4.890;2022-11-15T19:39:15;10.48;;;5.15;;
47259;SDS011;32999;52.412;4.890;2022-11-15T19:44:17;8.05;;;4.50;;
47259;SDS011;32999;52.412;4.890;2022-11-15T19:49:19;7.53;;;5.03;;
47259;SDS011;32999;52.412;4.890;2022-11-15T19:54:22;8.68;;;5.15;;
47259;SDS011;32999;52.412;4.890;2022-11-15T19:59:24;10.15;;;5.38;;
47259;SDS011;32999;52.412;4.890;2022-11-15T20:04:26;9.40;;;5.20;;
47259;SDS011;32999;52.412;4.890;2022-11-15T20:09:29;10.30;;;6.05;;
47259;SDS011;32999;52.412;4.890;2022-11-15T20:14:31;11.57;;;6.50;;
47259;SDS011;32999;52.412;4.890;2022-11-15T20:19:32;11.02;;;6.35;;
47259;SDS011;32999;52.412;4.890;2022-11-15T20:24:35;8.13;;;6.03;;
47259;SDS011;32999;52.412;4.890;2022-11-15T20:29:37;10.27;;;6.60;;
47259;SDS011;32999;52.412;4.890;2022-11-15T20:34:39;12.55;;;7.00;;
47259;SDS011;32999;52.412;4.890;2022-11-15T20:39:42;11.60;;;6.90;;
47259;SDS011;32999;52.412;4.890;2022-11-15T20:44:44;8.75;;;6.82;;
47259;SDS011;32999;52.412;4.890;2022-11-15T20:49:45;14.65;;;8.13;;
47259;SDS011;32999;52.412;4.890;2022-11-15T20:54:49;14.95;;;7.28;;
47259;SDS011;32999;52.412;4.890;2022-11-15T20:59:50;10.65;;;7.72;;
47259;SDS011;32999;52.412;4.890;2022-11-15T21:04:52;11.50;;;7.60;;
47259;SDS011;32999;52.412;4.890;2022-11-15T21:09:55;10.32;;;7.93;;
47259;SDS011;32999;52.412;4.890;2022-11-15T21:15:15;15.07;;;7.80;;
47259;SDS011;32999;52.412;4.890;2022-11-15T21:20:17;11.18;;;7.68;;
47259;SDS011;32999;52.412;4.890;2022-11-15T21:25:20;9.90;;;7.47;;
47259;SDS011;32999;52.412;4.890;2022-11-15T21:30:21;12.35;;;8.27;;
47259;SDS011;32999;52.412;4.890;2022-11-15T21:35:23;19.35;;;8.52;;
47259;SDS011;32999;52.412;4.890;2022-11-15T21:40:26;12.20;;;7.78;;
47259;SDS011;32999;52.412;4.890;2022-11-15T21:45:28;12.23;;;8.13;;
47259;SDS011;32999;52.412;4.890;2022-11-15T21:50:29;13.00;;;8.80;;
47259;SDS011;32999;52.412;4.890;2022-11-15T21:55:34;12.52;;;8.55;;
47259;SDS011;32999;52.412;4.890;2022-11-15T22:00:39;12.50;;;9.25;;
47259;SDS011;32999;52.412;4.890;2022-11-15T22:11:37;10.60;;;8.45;;
47259;SDS011;32999;52.412;4.890;2022-11-15T22:16:39;12.23;;;8.65;;
47259;SDS011;32999;52.412;4.890;2022-11-15T22:21:40;11.63;;;8.38;;
47259;SDS011;32999;52.412;4.890;2022-11-15T22:26:44;11.48;;;8.63;;
47259;SDS011;32999;52.412;4.890;2022-11-15T22:31:45;10.80;;;8.80;;
47259;SDS011;32999;52.412;4.890;2022-11-15T22:36:47;12.98;;;8.10;;
47259;SDS011;32999;52.412;4.890;2022-11-15T22:41:50;14.10;;;9.00;;
47259;SDS011;32999;52.412;4.890;2022-11-15T22:46:52;11.32;;;8.60;;
47259;SDS011;32999;52.412;4.890;2022-11-15T22:51:54;9.75;;;8.15;;
47259;SDS011;32999;52.412;4.890;2022-11-15T22:56:57;11.05;;;8.77;;
47259;SDS011;32999;52.412;4.890;2022-11-15T23:01:59;13.93;;;9.25;;
47259;SDS011;32999;52.412;4.890;2022-11-15T23:07:00;14.52;;;9.82;;
47259;SDS011;32999;52.412;4.890;2022-11-15T23:12:04;12.15;;;8.45;;
47259;SDS011;32999;52.412;4.890;2022-11-15T23:17:26;11.05;;;9.13;;
47259;SDS011;32999;52.412;4.890;2022-11-15T23:22:28;11.93;;;9.13;;
47259;SDS011;32999;52.412;4.890;2022-11-15T23:27:49;11.75;;;8.55;;
47259;SDS011;32999;52.412;4.890;2022-11-15T23:32:51;13.55;;;8.80;;
47259;SDS011;32999;52.412;4.890;2022-11-15T23:38:10;12.40;;;9.80;;
47259;SDS011;32999;52.412;4.890;2022-11-15T23:43:13;19.25;;;10.57;;
47259;SDS011;32999;52.412;4.890;2022-11-15T23:48:15;18.83;;;11.65;;
47259;SDS011;32999;52.412;4.890;2022-11-15T23:53:16;14.70;;;9.98;;
47259;SDS011;32999;52.412;4.890;2022-11-15T23:58:19;19.40;;;11.05;;
